Acworth, Georgia
Current Conditions -  °F | °C
As of 7:53 PM on Monday 26 Jan 2015 (Local Time) from KVPC Reporting Station
Overcast Overcast  
Wind Chill:   Ceiling: 8000
Heat Index:   Visibility: 10mi
Dew Point: -3°   Wind: 0mph
Humidity: 70%   Direction: NA
Pressure: 29.96"   Gusts: NA
Location:  34.06°N, 84.68°W
Report Text: KVPC 270053Z AUTO 00000KT 10SM OVC080 02/M03 A2996 RMK AO2 SLP142 T00221028
Loading
Personal Weather Stations






























Interactive Weather Map New forecast layout! Learn more

10-Day Weather Forecast

Advertisements
Track Severe Weather on mobile